sensor_id;sensor_type;location;lat;lon;timestamp;pressure;altitude;pressure_sealevel;temperature;humidity
70015;BME280;57358;51.094;6.760;2022-08-19T00:01:26;100884.53;;;18.26;100.00
70015;BME280;57358;51.094;6.760;2022-08-19T00:03:57;100859.59;;;18.06;100.00
70015;BME280;57358;51.094;6.760;2022-08-19T00:06:28;100887.53;;;18.22;100.00
70015;BME280;57358;51.094;6.760;2022-08-19T00:08:55;100892.41;;;18.17;100.00
70015;BME280;57358;51.094;6.760;2022-08-19T00:11:28;100892.91;;;18.10;100.00
70015;BME280;57358;51.094;6.760;2022-08-19T00:13:55;100889.66;;;18.07;100.00
70015;BME280;57358;51.094;6.760;2022-08-19T00:16:26;100847.06;;;17.74;100.00
70015;BME280;57358;51.094;6.760;2022-08-19T00:18:54;100874.34;;;17.88;100.00
70015;BME280;57358;51.094;6.760;2022-08-19T00:21:24;100888.94;;;18.05;100.00
70015;BME280;57358;51.094;6.760;2022-08-19T00:23:54;100898.00;;;18.02;100.00
70015;BME280;57358;51.094;6.760;2022-08-19T00:26:20;100890.16;;;18.01;100.00
70015;BME280;57358;51.094;6.760;2022-08-19T00:28:47;100657.00;;;16.62;100.00
70015;BME280;57358;51.094;6.760;2022-08-19T00:31:14;100873.75;;;17.84;100.00
70015;BME280;57358;51.094;6.760;2022-08-19T00:33:42;100880.03;;;17.94;100.00
70015;BME280;57358;51.094;6.760;2022-08-19T00:36:10;100880.03;;;17.94;100.00
70015;BME280;57358;51.094;6.760;2022-08-19T00:38:38;100891.59;;;17.93;100.00
70015;BME280;57358;51.094;6.760;2022-08-19T00:41:12;100882.78;;;17.93;100.00
70015;BME280;57358;51.094;6.760;2022-08-19T00:43:42;100883.88;;;17.90;100.00
70015;BME280;57358;51.094;6.760;2022-08-19T00:46:09;100764.50;;;17.11;100.00
70015;BME280;57358;51.094;6.760;2022-08-19T00:48:36;100839.47;;;17.47;100.00
70015;BME280;57358;51.094;6.760;2022-08-19T00:51:04;100813.69;;;17.27;100.00
70015;BME280;57358;51.094;6.760;2022-08-19T00:53:34;100871.78;;;17.64;100.00
70015;BME280;57358;51.094;6.760;2022-08-19T00:56:02;100862.03;;;17.64;100.00
70015;BME280;57358;51.094;6.760;2022-08-19T00:58:33;100859.25;;;17.66;100.00
70015;BME280;57358;51.094;6.760;2022-08-19T01:01:01;100802.97;;;17.28;100.00
70015;BME280;57358;51.094;6.760;2022-08-19T01:03:28;100783.44;;;17.18;100.00
70015;BME280;57358;51.094;6.760;2022-08-19T01:06:15;100902.22;;;17.71;100.00
70015;BME280;57358;51.094;6.760;2022-08-19T01:08:49;100871.31;;;17.70;100.00
70015;BME280;57358;51.094;6.760;2022-08-19T01:11:16;100792.94;;;17.21;100.00
70015;BME280;57358;51.094;6.760;2022-08-19T01:13:43;100798.38;;;17.19;100.00
70015;BME280;57358;51.094;6.760;2022-08-19T01:16:16;100866.47;;;17.64;100.00
70015;BME280;57358;51.094;6.760;2022-08-19T01:18:47;100870.34;;;17.60;100.00
70015;BME280;57358;51.094;6.760;2022-08-19T01:23:50;100802.72;;;17.09;100.00
70015;BME280;57358;51.094;6.760;2022-08-19T01:26:22;100787.16;;;16.93;100.00
70015;BME280;57358;51.094;6.760;2022-08-19T01:28:52;100860.97;;;17.44;100.00
70015;BME280;57358;51.094;6.760;2022-08-19T01:31:27;100862.75;;;17.44;100.00
70015;BME280;57358;51.094;6.760;2022-08-19T01:33:59;100860.25;;;17.42;100.00
70015;BME280;57358;51.094;6.760;2022-08-19T01:36:35;100858.78;;;17.38;100.00
70015;BME280;57358;51.094;6.760;2022-08-19T01:39:07;100798.09;;;17.00;100.00
70015;BME280;57358;51.094;6.760;2022-08-19T01:41:35;100803.31;;;17.01;100.00
70015;BME280;57358;51.094;6.760;2022-08-19T01:44:04;100795.34;;;16.90;100.00
70015;BME280;57358;51.094;6.760;2022-08-19T01:46:45;100856.34;;;17.24;100.00
70015;BME280;57358;51.094;6.760;2022-08-19T01:49:14;100836.81;;;17.02;100.00
70015;BME280;57358;51.094;6.760;2022-08-19T01:51:40;100851.28;;;17.09;100.00
70015;BME280;57358;51.094;6.760;2022-08-19T01:54:09;100869.00;;;17.09;100.00
70015;BME280;57358;51.094;6.760;2022-08-19T01:56:35;100811.31;;;16.77;100.00
70015;BME280;57358;51.094;6.760;2022-08-19T01:59:05;100844.06;;;17.00;100.00
70015;BME280;57358;51.094;6.760;2022-08-19T02:01:33;100813.00;;;16.78;100.00
70015;BME280;57358;51.094;6.760;2022-08-19T02:04:01;100843.91;;;16.90;100.00
70015;BME280;57358;51.094;6.760;2022-08-19T02:06:30;100838.34;;;16.82;100.00
70015;BME280;57358;51.094;6.760;2022-08-19T02:08:57;100788.97;;;16.46;100.00
70015;BME280;57358;51.094;6.760;2022-08-19T02:11:29;100822.13;;;16.63;100.00
70015;BME280;57358;51.094;6.760;2022-08-19T02:14:02;100846.69;;;16.65;100.00
70015;BME280;57358;51.094;6.760;2022-08-19T02:16:29;100754.16;;;16.04;100.00
70015;BME280;57358;51.094;6.760;2022-08-19T02:18:58;100763.38;;;15.98;100.00
70015;BME280;57358;51.094;6.760;2022-08-19T02:21:31;100820.63;;;16.23;100.00
70015;BME280;57358;51.094;6.760;2022-08-19T02:23:58;100848.69;;;16.50;100.00
70015;BME280;57358;51.094;6.760;2022-08-19T02:26:25;100852.19;;;16.50;100.00
70015;BME280;57358;51.094;6.760;2022-08-19T02:28:53;100744.78;;;15.87;100.00
70015;BME280;57358;51.094;6.760;2022-08-19T02:31:23;100849.19;;;16.55;100.00
70015;BME280;57358;51.094;6.760;2022-08-19T02:33:51;100844.25;;;16.50;100.00
70015;BME280;57358;51.094;6.760;2022-08-19T02:36:22;100774.41;;;16.16;100.00
70015;BME280;57358;51.094;6.760;2022-08-19T02:38:50;100854.28;;;16.58;100.00
70015;BME280;57358;51.094;6.760;2022-08-19T02:41:25;100790.63;;;16.11;100.00
70015;BME280;57358;51.094;6.760;2022-08-19T02:43:57;100863.16;;;16.57;100.00
70015;BME280;57358;51.094;6.760;2022-08-19T02:46:47;100870.38;;;16.55;100.00
70015;BME280;57358;51.094;6.760;2022-08-19T02:49:15;100870.50;;;16.53;100.00
70015;BME280;57358;51.094;6.760;2022-08-19T02:51:45;100849.84;;;16.34;100.00
70015;BME280;57358;51.094;6.760;2022-08-19T02:54:13;100879.75;;;16.48;100.00
70015;BME280;57358;51.094;6.760;2022-08-19T02:56:42;100811.34;;;15.93;100.00
70015;BME280;57358;51.094;6.760;2022-08-19T02:59:09;100827.09;;;16.08;100.00
70015;BME280;57358;51.094;6.760;2022-08-19T03:01:38;100787.97;;;15.87;100.00
70015;BME280;57358;51.094;6.760;2022-08-19T03:04:08;100867.84;;;16.29;100.00
70015;BME280;57358;51.094;6.760;2022-08-19T03:06:40;100824.56;;;15.93;100.00
70015;BME280;57358;51.094;6.760;2022-08-19T03:09:07;100775.53;;;15.77;100.00
70015;BME280;57358;51.094;6.760;2022-08-19T03:11:34;100829.56;;;15.98;100.00
70015;BME280;57358;51.094;6.760;2022-08-19T03:14:02;100875.13;;;16.39;100.00
70015;BME280;57358;51.094;6.760;2022-08-19T03:16:32;100670.66;;;15.14;100.00
70015;BME280;57358;51.094;6.760;2022-08-19T03:19:02;100786.94;;;15.77;100.00
70015;BME280;57358;51.094;6.760;2022-08-19T03:21:32;100868.47;;;16.33;100.00
70015;BME280;57358;51.094;6.760;2022-08-19T03:24:07;100763.66;;;15.69;100.00
70015;BME280;57358;51.094;6.760;2022-08-19T03:26:34;100863.75;;;16.25;100.00
70015;BME280;57358;51.094;6.760;2022-08-19T03:29:04;100807.03;;;15.92;100.00
70015;BME280;57358;51.094;6.760;2022-08-19T03:31:34;100657.47;;;15.02;100.00
70015;BME280;57358;51.094;6.760;2022-08-19T03:34:32;100865.44;;;16.26;100.00
70015;BME280;57358;51.094;6.760;2022-08-19T03:37:12;100902.41;;;16.28;100.00
70015;BME280;57358;51.094;6.760;2022-08-19T03:39:42;100872.22;;;16.30;100.00
70015;BME280;57358;51.094;6.760;2022-08-19T03:42:09;100800.25;;;15.88;100.00
70015;BME280;57358;51.094;6.760;2022-08-19T03:44:55;100733.06;;;15.41;100.00
70015;BME280;57358;51.094;6.760;2022-08-19T03:47:28;100803.28;;;15.95;100.00
70015;BME280;57358;51.094;6.760;2022-08-19T03:49:59;100809.78;;;15.91;100.00
70015;BME280;57358;51.094;6.760;2022-08-19T03:52:26;100818.41;;;16.06;100.00
70015;BME280;57358;51.094;6.760;2022-08-19T03:54:52;100797.91;;;15.97;100.00
70015;BME280;57358;51.094;6.760;2022-08-19T03:57:19;100852.31;;;16.25;100.00
70015;BME280;57358;51.094;6.760;2022-08-19T03:59:49;100809.44;;;15.95;100.00
70015;BME280;57358;51.094;6.760;2022-08-19T04:02:16;100841.81;;;16.23;100.00
70015;BME280;57358;51.094;6.760;2022-08-19T04:04:43;100865.72;;;16.34;100.00
70015;BME280;57358;51.094;6.760;2022-08-19T04:07:11;100732.34;;;15.39;100.00
70015;BME280;57358;51.094;6.760;2022-08-19T04:09:41;100825.94;;;15.99;100.00
70015;BME280;57358;51.094;6.760;2022-08-19T04:12:08;100798.72;;;15.73;100.00
70015;BME280;57358;51.094;6.760;2022-08-19T04:14:36;100724.00;;;15.32;100.00
70015;BME280;57358;51.094;6.760;2022-08-19T04:17:05;100873.00;;;16.20;100.00
70015;BME280;57358;51.094;6.760;2022-08-19T04:19:34;100872.38;;;16.16;100.00
70015;BME280;57358;51.094;6.760;2022-08-19T04:22:02;100849.91;;;15.98;100.00
70015;BME280;57358;51.094;6.760;2022-08-19T04:24:31;100877.16;;;16.11;100.00
70015;BME280;57358;51.094;6.760;2022-08-19T04:27:00;100810.88;;;15.63;100.00
70015;BME280;57358;51.094;6.760;2022-08-19T04:29:27;100815.53;;;15.59;100.00
70015;BME280;57358;51.094;6.760;2022-08-19T04:31:55;100881.94;;;16.06;100.00
70015;BME280;57358;51.094;6.760;2022-08-19T04:34:24;100872.94;;;16.08;100.00
70015;BME280;57358;51.094;6.760;2022-08-19T04:36:53;100840.25;;;15.97;100.00
70015;BME280;57358;51.094;6.760;2022-08-19T04:39:23;100873.44;;;16.13;100.00
70015;BME280;57358;51.094;6.760;2022-08-19T04:42:10;100812.22;;;15.81;100.00
70015;BME280;57358;51.094;6.760;2022-08-19T04:44:59;100773.22;;;15.59;100.00
70015;BME280;57358;51.094;6.760;2022-08-19T04:47:26;100791.94;;;15.69;100.00
70015;BME280;57358;51.094;6.760;2022-08-19T04:50:14;100879.03;;;16.22;100.00
70015;BME280;57358;51.094;6.760;2022-08-19T04:52:40;100845.63;;;16.08;100.00
70015;BME280;57358;51.094;6.760;2022-08-19T04:55:10;100840.19;;;16.09;100.00
70015;BME280;57358;51.094;6.760;2022-08-19T04:57:36;100889.63;;;16.46;100.00
70015;BME280;57358;51.094;6.760;2022-08-19T05:00:07;100887.47;;;16.51;100.00
70015;BME280;57358;51.094;6.760;2022-08-19T05:02:34;100765.16;;;15.73;100.00
70015;BME280;57358;51.094;6.760;2022-08-19T05:05:01;100762.22;;;15.89;100.00
70015;BME280;57358;51.094;6.760;2022-08-19T05:07:27;100834.59;;;16.49;100.00
70015;BME280;57358;51.094;6.760;2022-08-19T05:09:55;100822.22;;;16.61;100.00
70015;BME280;57358;51.094;6.760;2022-08-19T05:12:24;100829.38;;;16.72;100.00
70015;BME280;57358;51.094;6.760;2022-08-19T05:14:55;100856.69;;;16.97;100.00
70015;BME280;57358;51.094;6.760;2022-08-19T05:17:23;100886.00;;;17.18;100.00
70015;BME280;57358;51.094;6.760;2022-08-19T05:19:54;100832.56;;;16.88;100.00
70015;BME280;57358;51.094;6.760;2022-08-19T05:22:40;100909.31;;;17.48;100.00
70015;BME280;57358;51.094;6.760;2022-08-19T05:25:10;100833.22;;;17.14;100.00
70015;BME280;57358;51.094;6.760;2022-08-19T05:27:40;100911.13;;;17.81;100.00
70015;BME280;57358;51.094;6.760;2022-08-19T05:30:08;100880.03;;;17.83;100.00
70015;BME280;57358;51.094;6.760;2022-08-19T05:32:35;100911.72;;;18.19;100.00
70015;BME280;57358;51.094;6.760;2022-08-19T05:35:03;100824.41;;;17.70;100.00
70015;BME280;57358;51.094;6.760;2022-08-19T05:37:30;100891.28;;;18.30;100.00
70015;BME280;57358;51.094;6.760;2022-08-19T05:39:56;100896.19;;;18.46;100.00
70015;BME280;57358;51.094;6.760;2022-08-19T05:42:23;100715.84;;;17.56;100.00
70015;BME280;57358;51.094;6.760;2022-08-19T05:44:52;100830.13;;;18.42;100.00
70015;BME280;57358;51.094;6.760;2022-08-19T05:47:18;100909.50;;;19.00;100.00
70015;BME280;57358;51.094;6.760;2022-08-19T05:49:46;100900.34;;;19.13;100.00
70015;BME280;57358;51.094;6.760;2022-08-19T05:52:14;100900.19;;;19.36;100.00
70015;BME280;57358;51.094;6.760;2022-08-19T05:54:45;100862.13;;;19.45;100.00
70015;BME280;57358;51.094;6.760;2022-08-19T05:57:17;100884.03;;;19.89;100.00
70015;BME280;57358;51.094;6.760;2022-08-19T05:59:44;100880.19;;;20.13;100.00
70015;BME280;57358;51.094;6.760;2022-08-19T06:02:14;100878.38;;;20.23;100.00
70015;BME280;57358;51.094;6.760;2022-08-19T06:04:41;100872.47;;;20.20;100.00
70015;BME280;57358;51.094;6.760;2022-08-19T06:07:10;100835.25;;;19.79;100.00
70015;BME280;57358;51.094;6.760;2022-08-19T06:09:38;100882.94;;;20.02;100.00
70015;BME280;57358;51.094;6.760;2022-08-19T06:12:05;100880.13;;;19.93;100.00
70015;BME280;57358;51.094;6.760;2022-08-19T06:14:34;100889.47;;;19.78;100.00
70015;BME280;57358;51.094;6.760;2022-08-19T06:17:07;100861.88;;;19.48;100.00
70015;BME280;57358;51.094;6.760;2022-08-19T06:19:34;100834.84;;;19.22;100.00
70015;BME280;57358;51.094;6.760;2022-08-19T06:22:07;100832.63;;;18.97;100.00
70015;BME280;57358;51.094;6.760;2022-08-19T06:24:34;100843.59;;;19.03;100.00
70015;BME280;57358;51.094;6.760;2022-08-19T06:27:05;100871.59;;;19.28;100.00
70015;BME280;57358;51.094;6.760;2022-08-19T06:29:32;100881.25;;;19.29;100.00
70015;BME280;57358;51.094;6.760;2022-08-19T06:32:00;100909.06;;;19.46;100.00
70015;BME280;57358;51.094;6.760;2022-08-19T06:34:31;100888.34;;;19.50;100.00
70015;BME280;57358;51.094;6.760;2022-08-19T06:36:59;100892.00;;;19.49;100.00
70015;BME280;57358;51.094;6.760;2022-08-19T06:39:31;100887.25;;;19.52;100.00
70015;BME280;57358;51.094;6.760;2022-08-19T06:42:01;100854.41;;;19.11;100.00
70015;BME280;57358;51.094;6.760;2022-08-19T06:44:31;100864.88;;;19.34;100.00
70015;BME280;57358;51.094;6.760;2022-08-19T06:47:08;100846.66;;;19.29;100.00
70015;BME280;57358;51.094;6.760;2022-08-19T06:49:49;100855.94;;;19.35;100.00
70015;BME280;57358;51.094;6.760;2022-08-19T06:52:15;100735.47;;;18.71;100.00
70015;BME280;57358;51.094;6.760;2022-08-19T06:54:42;100891.09;;;19.69;100.00
70015;BME280;57358;51.094;6.760;2022-08-19T06:57:22;100890.75;;;19.84;100.00
70015;BME280;57358;51.094;6.760;2022-08-19T06:59:49;100888.66;;;19.87;100.00
70015;BME280;57358;51.094;6.760;2022-08-19T07:02:15;100848.19;;;19.63;100.00
70015;BME280;57358;51.094;6.760;2022-08-19T07:04:42;100839.03;;;19.46;100.00
70015;BME280;57358;51.094;6.760;2022-08-19T07:07:12;100827.72;;;19.23;100.00
70015;BME280;57358;51.094;6.760;2022-08-19T07:09:47;100872.47;;;19.39;100.00
70015;BME280;57358;51.094;6.760;2022-08-19T07:12:27;100897.44;;;19.47;100.00
70015;BME280;57358;51.094;6.760;2022-08-19T07:14:56;100729.34;;;18.29;100.00
70015;BME280;57358;51.094;6.760;2022-08-19T07:17:24;100914.47;;;19.35;100.00
70015;BME280;57358;51.094;6.760;2022-08-19T07:19:51;100829.63;;;18.90;100.00
70015;BME280;57358;51.094;6.760;2022-08-19T07:22:20;100919.38;;;19.61;100.00
70015;BME280;57358;51.094;6.760;2022-08-19T07:24:49;100886.97;;;19.56;100.00
70015;BME280;57358;51.094;6.760;2022-08-19T07:27:17;100932.28;;;19.96;100.00
70015;BME280;57358;51.094;6.760;2022-08-19T07:29:51;100913.78;;;19.95;100.00
70015;BME280;57358;51.094;6.760;2022-08-19T07:32:24;100923.47;;;19.96;100.00
70015;BME280;57358;51.094;6.760;2022-08-19T07:34:52;100877.00;;;19.79;100.00
70015;BME280;57358;51.094;6.760;2022-08-19T07:37:19;100900.31;;;19.96;100.00
70015;BME280;57358;51.094;6.760;2022-08-19T07:39:45;100923.81;;;20.22;100.00
70015;BME280;57358;51.094;6.760;2022-08-19T07:42:12;100903.31;;;20.22;100.00
70015;BME280;57358;51.094;6.760;2022-08-19T07:44:40;100916.25;;;20.46;100.00
70015;BME280;57358;51.094;6.760;2022-08-19T07:47:07;100878.94;;;20.46;100.00
70015;BME280;57358;51.094;6.760;2022-08-19T07:49:54;100928.94;;;20.74;100.00
70015;BME280;57358;51.094;6.760;2022-08-19T07:52:20;100888.19;;;20.52;100.00
70015;BME280;57358;51.094;6.760;2022-08-19T07:54:46;100941.00;;;20.87;100.00
70015;BME280;57358;51.094;6.760;2022-08-19T07:57:13;100940.44;;;20.84;100.00
70015;BME280;57358;51.094;6.760;2022-08-19T07:59:39;100896.94;;;20.83;100.00
70015;BME280;57358;51.094;6.760;2022-08-19T08:02:08;100914.72;;;21.12;100.00
70015;BME280;57358;51.094;6.760;2022-08-19T08:04:34;100882.78;;;21.30;100.00
70015;BME280;57358;51.094;6.760;2022-08-19T08:07:20;100920.22;;;21.95;100.00
70015;BME280;57358;51.094;6.760;2022-08-19T08:10:11;100916.19;;;22.09;97.31
70015;BME280;57358;51.094;6.760;2022-08-19T08:12:47;100823.09;;;21.59;94.72
70015;BME280;57358;51.094;6.760;2022-08-19T08:15:33;100791.72;;;21.88;93.13
70015;BME280;57358;51.094;6.760;2022-08-19T08:18:06;100927.00;;;23.25;91.05
70015;BME280;57358;51.094;6.760;2022-08-19T08:20:34;100922.81;;;23.57;88.41
70015;BME280;57358;51.094;6.760;2022-08-19T08:23:01;100890.41;;;23.68;85.40
70015;BME280;57358;51.094;6.760;2022-08-19T08:25:46;100870.03;;;23.49;83.46
70015;BME280;57358;51.094;6.760;2022-08-19T08:28:15;100857.44;;;23.41;82.11
70015;BME280;57358;51.094;6.760;2022-08-19T08:30:43;100936.34;;;24.07;81.17
70015;BME280;57358;51.094;6.760;2022-08-19T08:33:11;100925.41;;;24.09;80.59
70015;BME280;57358;51.094;6.760;2022-08-19T08:35:40;100921.03;;;23.92;80.25
70015;BME280;57358;51.094;6.760;2022-08-19T08:38:08;100840.97;;;23.20;80.22
70015;BME280;57358;51.094;6.760;2022-08-19T08:40:47;100876.00;;;23.08;81.71
70015;BME280;57358;51.094;6.760;2022-08-19T08:43:23;100950.59;;;23.21;82.63
70015;BME280;57358;51.094;6.760;2022-08-19T08:46:19;100895.66;;;22.55;85.07
70015;BME280;57358;51.094;6.760;2022-08-19T08:52:08;100866.31;;;22.27;84.73
70015;BME280;57358;51.094;6.760;2022-08-19T08:54:41;100938.81;;;22.78;84.76
70015;BME280;57358;51.094;6.760;2022-08-19T08:57:43;100936.16;;;22.78;83.16
70015;BME280;57358;51.094;6.760;2022-08-19T09:00:15;100886.63;;;22.38;84.55
70015;BME280;57358;51.094;6.760;2022-08-19T09:02:43;100942.81;;;22.74;83.78
70015;BME280;57358;51.094;6.760;2022-08-19T09:05:16;100895.19;;;22.42;82.49
70015;BME280;57358;51.094;6.760;2022-08-19T09:08:07;100910.78;;;22.64;82.79
70015;BME280;57358;51.094;6.760;2022-08-19T09:10:51;100957.06;;;23.01;81.92
70015;BME280;57358;51.094;6.760;2022-08-19T09:16:07;100921.97;;;23.22;80.16
70015;BME280;57358;51.094;6.760;2022-08-19T09:18:49;100942.84;;;23.44;78.67
70015;BME280;57358;51.094;6.760;2022-08-19T09:21:21;100874.34;;;23.07;78.05
70015;BME280;57358;51.094;6.760;2022-08-19T09:23:58;100938.41;;;23.61;75.74
70015;BME280;57358;51.094;6.760;2022-08-19T09:26:25;100933.53;;;23.83;74.79
70015;BME280;57358;51.094;6.760;2022-08-19T09:29:12;100853.13;;;23.14;73.67
70015;BME280;57358;51.094;6.760;2022-08-19T09:31:39;100828.88;;;23.16;73.44
70015;BME280;57358;51.094;6.760;2022-08-19T09:34:05;100931.81;;;24.08;71.52
70015;BME280;57358;51.094;6.760;2022-08-19T09:36:48;100874.06;;;23.79;72.51
70015;BME280;57358;51.094;6.760;2022-08-19T09:39:20;100851.03;;;24.19;70.91
70015;BME280;57358;51.094;6.760;2022-08-19T09:41:46;100869.53;;;24.63;68.53
70015;BME280;57358;51.094;6.760;2022-08-19T09:44:14;100914.81;;;25.07;67.23
70015;BME280;57358;51.094;6.760;2022-08-19T09:46:41;100903.41;;;25.30;65.89
70015;BME280;57358;51.094;6.760;2022-08-19T09:49:07;100804.44;;;24.86;64.79
70015;BME280;57358;51.094;6.760;2022-08-19T09:51:34;100912.69;;;25.67;64.44
70015;BME280;57358;51.094;6.760;2022-08-19T09:54:02;100916.97;;;25.93;64.22
70015;BME280;57358;51.094;6.760;2022-08-19T09:56:30;100853.50;;;25.75;63.52
70015;BME280;57358;51.094;6.760;2022-08-19T09:59:00;100909.09;;;26.22;61.64
70015;BME280;57358;51.094;6.760;2022-08-19T10:01:29;100849.59;;;25.94;62.07
70015;BME280;57358;51.094;6.760;2022-08-19T10:04:00;100907.22;;;26.46;60.94
70015;BME280;57358;51.094;6.760;2022-08-19T10:06:40;100910.91;;;26.53;60.24
70015;BME280;57358;51.094;6.760;2022-08-19T10:09:12;100847.88;;;25.62;61.11
70015;BME280;57358;51.094;6.760;2022-08-19T10:11:43;100864.66;;;25.64;61.60
70015;BME280;57358;51.094;6.760;2022-08-19T10:14:20;100876.03;;;25.74;62.39
70015;BME280;57358;51.094;6.760;2022-08-19T10:16:51;100920.38;;;25.78;61.71
70015;BME280;57358;51.094;6.760;2022-08-19T10:19:23;100898.72;;;25.72;62.28
70015;BME280;57358;51.094;6.760;2022-08-19T10:21:52;100916.66;;;25.79;62.37
70015;BME280;57358;51.094;6.760;2022-08-19T10:24:25;100863.09;;;25.14;63.63
70015;BME280;57358;51.094;6.760;2022-08-19T10:26:53;100870.31;;;25.30;63.09
70015;BME280;57358;51.094;6.760;2022-08-19T10:29:24;100805.41;;;24.93;63.21
70015;BME280;57358;51.094;6.760;2022-08-19T10:32:04;100871.56;;;25.58;62.25
70015;BME280;57358;51.094;6.760;2022-08-19T10:34:37;100849.81;;;25.76;61.36
70015;BME280;57358;51.094;6.760;2022-08-19T10:37:15;100917.72;;;26.10;62.26
70015;BME280;57358;51.094;6.760;2022-08-19T10:39:49;100922.66;;;25.98;62.24
70015;BME280;57358;51.094;6.760;2022-08-19T10:42:22;100859.91;;;25.74;61.96
70015;BME280;57358;51.094;6.760;2022-08-19T10:44:49;100873.97;;;25.93;61.35
70015;BME280;57358;51.094;6.760;2022-08-19T10:47:19;100881.03;;;26.17;60.45
70015;BME280;57358;51.094;6.760;2022-08-19T10:49:56;100914.06;;;26.57;60.42
70015;BME280;57358;51.094;6.760;2022-08-19T10:52:47;100810.63;;;26.13;59.27
70015;BME280;57358;51.094;6.760;2022-08-19T10:55:21;100911.69;;;26.62;59.01
70015;BME280;57358;51.094;6.760;2022-08-19T10:58:15;100914.69;;;26.67;58.97
70015;BME280;57358;51.094;6.760;2022-08-19T11:00:43;100899.75;;;26.64;59.03
70015;BME280;57358;51.094;6.760;2022-08-19T11:03:16;100877.00;;;26.67;59.56
70015;BME280;57358;51.094;6.760;2022-08-19T11:05:44;100775.72;;;26.05;57.53
70015;BME280;57358;51.094;6.760;2022-08-19T11:08:11;100846.44;;;26.37;57.65
70015;BME280;57358;51.094;6.760;2022-08-19T11:10:50;100904.00;;;26.97;56.34
70015;BME280;57358;51.094;6.760;2022-08-19T11:13:17;100900.91;;;26.85;55.10
70015;BME280;57358;51.094;6.760;2022-08-19T11:15:43;100693.91;;;25.76;55.16
70015;BME280;57358;51.094;6.760;2022-08-19T11:18:12;100915.31;;;27.30;55.05
70015;BME280;57358;51.094;6.760;2022-08-19T11:20:38;100859.56;;;26.78;55.26
70015;BME280;57358;51.094;6.760;2022-08-19T11:23:05;100927.97;;;26.69;55.81
70015;BME280;57358;51.094;6.760;2022-08-19T11:25:32;100903.56;;;26.70;56.16
70015;BME280;57358;51.094;6.760;2022-08-19T11:27:59;100781.19;;;26.35;54.77
70015;BME280;57358;51.094;6.760;2022-08-19T11:30:29;100918.13;;;27.37;54.08
70015;BME280;57358;51.094;6.760;2022-08-19T11:32:55;100911.88;;;27.51;53.27
70015;BME280;57358;51.094;6.760;2022-08-19T11:35:22;100910.50;;;27.40;52.95
70015;BME280;57358;51.094;6.760;2022-08-19T11:37:49;100914.50;;;27.44;53.37
70015;BME280;57358;51.094;6.760;2022-08-19T11:40:16;100827.78;;;27.26;52.62
70015;BME280;57358;51.094;6.760;2022-08-19T11:42:42;100841.81;;;27.36;53.32
70015;BME280;57358;51.094;6.760;2022-08-19T11:45:26;100906.56;;;27.88;53.02
70015;BME280;57358;51.094;6.760;2022-08-19T11:50:40;100856.41;;;28.30;50.25
70015;BME280;57358;51.094;6.760;2022-08-19T11:53:11;100886.13;;;28.73;49.31
70015;BME280;57358;51.094;6.760;2022-08-19T11:55:38;100671.56;;;27.54;48.34
70015;BME280;57358;51.094;6.760;2022-08-19T11:58:09;100879.13;;;28.20;49.98
70015;BME280;57358;51.094;6.760;2022-08-19T12:00:44;100855.78;;;27.76;49.81
70015;BME280;57358;51.094;6.760;2022-08-19T12:03:12;100855.94;;;27.38;50.47
70015;BME280;57358;51.094;6.760;2022-08-19T12:05:39;100913.94;;;27.49;50.13
70015;BME280;57358;51.094;6.760;2022-08-19T12:08:09;100856.09;;;27.22;51.62
70015;BME280;57358;51.094;6.760;2022-08-19T12:10:36;100890.81;;;28.06;50.75
70015;BME280;57358;51.094;6.760;2022-08-19T12:13:02;100861.03;;;27.48;49.38
70015;BME280;57358;51.094;6.760;2022-08-19T12:15:29;100908.09;;;27.08;48.63
70015;BME280;57358;51.094;6.760;2022-08-19T12:18:03;100930.16;;;27.26;50.97
70015;BME280;57358;51.094;6.760;2022-08-19T12:20:30;100851.88;;;26.75;51.52
70015;BME280;57358;51.094;6.760;2022-08-19T12:23:02;100877.22;;;26.80;51.92
70015;BME280;57358;51.094;6.760;2022-08-19T12:25:28;100887.75;;;27.05;51.18
70015;BME280;57358;51.094;6.760;2022-08-19T12:27:55;100881.19;;;27.67;50.03
70015;BME280;57358;51.094;6.760;2022-08-19T12:30:23;100908.81;;;28.20;50.16
70015;BME280;57358;51.094;6.760;2022-08-19T12:32:49;100879.84;;;28.08;49.76
70015;BME280;57358;51.094;6.760;2022-08-19T12:35:17;100886.13;;;28.51;48.19
70015;BME280;57358;51.094;6.760;2022-08-19T12:37:48;100903.34;;;28.72;47.47
70015;BME280;57358;51.094;6.760;2022-08-19T12:40:23;100896.31;;;28.77;46.58
70015;BME280;57358;51.094;6.760;2022-08-19T12:42:52;100906.38;;;28.25;47.04
70015;BME280;57358;51.094;6.760;2022-08-19T12:45:19;100863.22;;;28.25;46.66
70015;BME280;57358;51.094;6.760;2022-08-19T12:47:46;100868.88;;;28.52;46.33
70015;BME280;57358;51.094;6.760;2022-08-19T12:50:14;100902.06;;;28.96;45.53
70015;BME280;57358;51.094;6.760;2022-08-19T12:52:43;100904.81;;;29.02;44.89
70015;BME280;57358;51.094;6.760;2022-08-19T12:55:10;100910.78;;;29.13;44.61
70015;BME280;57358;51.094;6.760;2022-08-19T12:57:37;100859.41;;;29.13;43.94
70015;BME280;57358;51.094;6.760;2022-08-19T13:00:07;100892.22;;;29.44;44.25
70015;BME280;57358;51.094;6.760;2022-08-19T13:02:38;100802.00;;;29.11;43.03
70015;BME280;57358;51.094;6.760;2022-08-19T13:05:07;100848.16;;;29.51;42.88
70015;BME280;57358;51.094;6.760;2022-08-19T13:07:37;100899.22;;;29.32;44.04
70015;BME280;57358;51.094;6.760;2022-08-19T13:10:09;100841.25;;;29.07;43.68
70015;BME280;57358;51.094;6.760;2022-08-19T13:12:35;100904.69;;;29.39;42.86